Time;durP1;ratioP1;P1;durP2;ratioP2;P2;SDS_P1;SDS_P2;PMS_P1;PMS_P2;Temp;Humidity;BMP_temperature;BMP_pressure;BME280_temperature;BME280_humidity;BME280_pressure;Samples;Min_cycle;Max_cycle;Signal;HPM_P1;HPM_P2
2023/01/05 00:02:35;;;;;;;1.70;1.60;;;;;;;;;;6260764;28;20277;-83
2023/01/05 00:05:41;;;;;;;1.40;1.40;;;;;;;;;;6260539;28;20602;-83
2023/01/05 00:08:46;;;;;;;2.20;1.27;;;;;;;;;;6260971;28;20292;-83
2023/01/05 00:22:32;;;;;;;1.43;1.30;;;;;;;;;;6266385;28;20563;-83
2023/01/05 00:25:38;;;;;;;2.27;1.20;;;;;;;;;;6279380;28;20271;-82
2023/01/05 00:28:43;;;;;;;1.60;1.50;;;;;;;;;;6282208;28;20282;-81
2023/01/05 00:31:49;;;;;;;2.73;1.50;;;;;;;;;;6280934;28;20258;-83
2023/01/05 00:34:57;;;;;;;3.00;1.70;;;;;;;;;;6270074;28;20267;-83
2023/01/05 00:38:02;;;;;;;1.77;1.30;;;;;;;;;;6284065;28;20271;-84
2023/01/05 00:41:07;;;;;;;1.20;1.20;;;;;;;;;;6266100;28;20269;-84
2023/01/05 00:44:13;;;;;;;1.47;1.40;;;;;;;;;;6265395;28;20274;-84
2023/01/05 00:47:18;;;;;;;1.60;1.60;;;;;;;;;;6264625;28;20354;-83
2023/01/05 00:50:25;;;;;;;2.93;1.70;;;;;;;;;;6280541;28;20298;-83
2023/01/05 00:53:30;;;;;;;1.70;1.60;;;;;;;;;;6264873;28;20268;-83
2023/01/05 00:56:36;;;;;;;1.93;1.80;;;;;;;;;;6280245;28;20270;-84
2023/01/05 00:59:42;;;;;;;1.90;1.80;;;;;;;;;;6264533;28;20265;-84
2023/01/05 01:02:48;;;;;;;1.67;1.60;;;;;;;;;;6265425;28;20276;-82
2023/01/05 01:05:58;;;;;;;1.50;1.50;;;;;;;;;;6263900;28;20303;-83
2023/01/05 01:09:04;;;;;;;1.40;1.40;;;;;;;;;;6264781;28;20287;-83
2023/01/05 01:12:11;;;;;;;1.50;1.40;;;;;;;;;;6273003;28;20265;-84
2023/01/05 01:15:17;;;;;;;1.47;1.40;;;;;;;;;;6288956;28;20269;-84
2023/01/05 01:18:22;;;;;;;2.10;1.50;;;;;;;;;;6271592;28;20277;-84
2023/01/05 01:21:28;;;;;;;4.17;1.77;;;;;;;;;;6289139;28;20432;-83
2023/01/05 01:24:34;;;;;;;1.53;1.50;;;;;;;;;;6271090;28;20276;-83
2023/01/05 01:27:39;;;;;;;2.30;1.43;;;;;;;;;;6270895;28;20266;-83
2023/01/05 01:30:44;;;;;;;1.83;1.73;;;;;;;;;;6271503;28;20289;-83
2023/01/05 01:33:49;;;;;;;2.10;1.63;;;;;;;;;;6288833;28;20556;-82
2023/01/05 01:36:59;;;;;;;2.30;1.50;;;;;;;;;;6287425;28;20415;-82
2023/01/05 01:40:13;;;;;;;3.00;1.60;;;;;;;;;;6270600;28;20277;-83
2023/01/05 01:43:20;;;;;;;1.47;1.47;;;;;;;;;;6287235;28;20281;-82
2023/01/05 01:46:27;;;;;;;1.80;1.50;;;;;;;;;;6270939;28;20286;-82
2023/01/05 01:49:32;;;;;;;3.53;1.57;;;;;;;;;;6270714;28;20310;-82
2023/01/05 01:52:44;;;;;;;1.53;1.53;;;;;;;;;;6287958;28;20450;-82
2023/01/05 01:55:50;;;;;;;1.60;1.50;;;;;;;;;;6286721;28;20267;-82
2023/01/05 01:58:55;;;;;;;4.77;1.60;;;;;;;;;;6270267;28;20276;-82
2023/01/05 02:02:02;;;;;;;1.40;1.40;;;;;;;;;;6270805;28;20314;-83
2023/01/05 02:05:10;;;;;;;1.60;1.50;;;;;;;;;;6286716;28;20289;-81
2023/01/05 02:08:24;;;;;;;1.70;1.60;;;;;;;;;;6270045;28;20366;-82
2023/01/05 02:11:38;;;;;;;5.03;1.60;;;;;;;;;;6269795;28;20530;-83
2023/01/05 02:14:59;;;;;;;1.53;1.43;;;;;;;;;;6287887;28;20266;-81
2023/01/05 02:18:15;;;;;;;1.87;1.70;;;;;;;;;;6297249;28;20279;-82
2023/01/05 02:21:27;;;;;;;1.97;1.30;;;;;;;;;;6287771;28;20258;-81
2023/01/05 02:24:56;;;;;;;2.13;1.73;;;;;;;;;;6277354;28;20269;-83
2023/01/05 02:28:13;;;;;;;1.77;1.77;;;;;;;;;;6288710;28;20268;-82
2023/01/05 02:31:22;;;;;;;2.73;1.67;;;;;;;;;;6269818;28;20308;-81
2023/01/05 02:34:33;;;;;;;3.80;1.37;;;;;;;;;;6287446;28;20267;-82
2023/01/05 02:37:44;;;;;;;1.50;1.40;;;;;;;;;;6285296;28;20297;-82
2023/01/05 02:40:52;;;;;;;1.20;1.20;;;;;;;;;;6286611;28;20277;-82
2023/01/05 02:43:57;;;;;;;1.40;1.30;;;;;;;;;;6269149;28;20264;-82
2023/01/05 02:47:06;;;;;;;2.23;1.30;;;;;;;;;;6285695;28;20276;-82
2023/01/05 02:50:17;;;;;;;1.40;1.30;;;;;;;;;;6269313;28;20411;-82
2023/01/05 02:53:24;;;;;;;1.57;1.30;;;;;;;;;;6269263;28;20277;-82
2023/01/05 02:56:34;;;;;;;1.23;1.20;;;;;;;;;;6269040;28;20269;-83
2023/01/05 02:59:41;;;;;;;2.37;1.40;;;;;;;;;;6286945;28;20275;-82
2023/01/05 03:02:49;;;;;;;1.40;1.40;;;;;;;;;;6285078;28;20273;-82
2023/01/05 03:05:58;;;;;;;1.33;1.33;;;;;;;;;;6286259;28;20304;-82
2023/01/05 03:09:06;;;;;;;2.00;1.40;;;;;;;;;;6268793;28;20265;-83
2023/01/05 03:15:47;;;;;;;1.60;1.40;;;;;;;;;;6286007;28;20269;-83
2023/01/05 03:36:00;;;;;;;2.70;1.50;;;;;;;;;;6285237;28;20277;-81
2023/01/05 03:39:06;;;;;;;2.63;1.20;;;;;;;;;;6267684;28;20271;-81
2023/01/05 03:42:12;;;;;;;0.90;0.90;;;;;;;;;;6284455;28;20468;-81
2023/01/05 03:45:19;;;;;;;1.77;1.10;;;;;;;;;;6284962;28;20536;-82
2023/01/05 03:48:27;;;;;;;2.93;1.80;;;;;;;;;;6284378;28;20264;-82
2023/01/05 03:51:34;;;;;;;1.47;1.47;;;;;;;;;;6284793;28;20329;-81
2023/01/05 03:54:46;;;;;;;1.40;1.40;;;;;;;;;;6267308;28;20293;-82
2023/01/05 03:57:52;;;;;;;1.57;1.47;;;;;;;;;;6268075;28;20274;-82
2023/01/05 04:00:58;;;;;;;4.53;1.70;;;;;;;;;;6284172;28;20271;-82
2023/01/05 04:04:04;;;;;;;1.67;1.57;;;;;;;;;;6267470;28;20448;-81
2023/01/05 04:07:12;;;;;;;1.73;1.73;;;;;;;;;;6285515;28;20302;-81
2023/01/05 04:10:17;;;;;;;1.80;1.60;;;;;;;;;;6267372;28;20292;-82
2023/01/05 04:13:23;;;;;;;1.60;1.60;;;;;;;;;;6284946;28;20282;-82
2023/01/05 04:16:32;;;;;;;1.50;1.50;;;;;;;;;;6267965;28;20268;-82
2023/01/05 04:19:44;;;;;;;3.17;1.90;;;;;;;;;;6267407;28;20273;-81
2023/01/05 04:22:52;;;;;;;2.60;1.80;;;;;;;;;;6284061;28;20270;-81
2023/01/05 04:25:59;;;;;;;1.27;1.23;;;;;;;;;;6267472;28;20269;-82
2023/01/05 04:29:04;;;;;;;2.20;2.10;;;;;;;;;;6285518;28;20273;-83
2023/01/05 04:32:11;;;;;;;2.13;2.07;;;;;;;;;;6285117;28;20287;-81
2023/01/05 04:35:16;;;;;;;2.13;1.90;;;;;;;;;;6267898;28;20293;-82
2023/01/05 04:38:24;;;;;;;1.70;1.70;;;;;;;;;;6267913;28;20270;-81
2023/01/05 04:41:31;;;;;;;1.90;1.87;;;;;;;;;;6267099;28;20269;-81
2023/01/05 04:44:36;;;;;;;2.33;2.13;;;;;;;;;;6283292;28;20268;-82
2023/01/05 04:47:43;;;;;;;1.90;1.80;;;;;;;;;;6267243;28;20272;-82
2023/01/05 04:50:54;;;;;;;3.47;1.93;;;;;;;;;;6266822;28;20594;-81
2023/01/05 04:54:07;;;;;;;1.80;1.80;;;;;;;;;;6267296;28;20269;-81
2023/01/05 04:57:13;;;;;;;1.70;1.60;;;;;;;;;;6266872;28;20269;-82
2023/01/05 05:00:18;;;;;;;1.70;1.60;;;;;;;;;;6267816;28;20278;-82
2023/01/05 05:03:27;;;;;;;3.53;1.50;;;;;;;;;;6271577;28;20551;-81
2023/01/05 05:06:38;;;;;;;1.97;1.77;;;;;;;;;;6262801;28;20622;-82
2023/01/05 05:09:45;;;;;;;3.17;1.80;;;;;;;;;;6279835;28;20290;-81
2023/01/05 05:12:52;;;;;;;2.20;1.70;;;;;;;;;;6256319;28;20284;-81
2023/01/05 05:15:57;;;;;;;1.20;1.13;;;;;;;;;;6215645;28;20268;-81
2023/01/05 05:19:04;;;;;;;3.47;1.67;;;;;;;;;;6214452;28;20532;-81
2023/01/05 05:22:10;;;;;;;1.30;1.27;;;;;;;;;;6215495;28;20271;-81
2023/01/05 05:25:17;;;;;;;2.10;1.40;;;;;;;;;;6215815;28;20276;-81
2023/01/05 05:28:27;;;;;;;1.73;1.63;;;;;;;;;;6216488;28;20291;-81
2023/01/05 05:31:32;;;;;;;1.83;1.73;;;;;;;;;;6216421;28;20296;-81
2023/01/05 05:34:37;;;;;;;1.87;1.77;;;;;;;;;;6214783;28;20272;-81
2023/01/05 05:37:43;;;;;;;1.37;1.37;;;;;;;;;;6215394;28;20275;-81
2023/01/05 05:40:50;;;;;;;2.67;1.90;;;;;;;;;;6214918;28;20551;-81
2023/01/05 05:44:01;;;;;;;2.47;1.80;;;;;;;;;;6215285;28;20284;-81
2023/01/05 05:47:06;;;;;;;3.40;1.47;;;;;;;;;;6215347;28;20455;-80
2023/01/05 05:50:11;;;;;;;2.77;1.80;;;;;;;;;;6213422;28;20433;-80
2023/01/05 05:53:16;;;;;;;2.20;1.60;;;;;;;;;;6214975;28;20380;-81
2023/01/05 05:56:23;;;;;;;3.40;1.60;;;;;;;;;;6215836;28;20273;-81
2023/01/05 05:59:29;;;;;;;4.83;1.80;;;;;;;;;;6215065;28;20295;-81
2023/01/05 06:02:34;;;;;;;1.63;1.50;;;;;;;;;;6214935;28;20274;-81
2023/01/05 06:05:40;;;;;;;4.33;1.70;;;;;;;;;;6232995;28;20298;-81
2023/01/05 06:08:45;;;;;;;3.60;2.10;;;;;;;;;;6263354;28;20291;-81
2023/01/05 06:11:52;;;;;;;5.27;2.07;;;;;;;;;;6280317;28;20289;-80
2023/01/05 06:14:57;;;;;;;3.27;2.10;;;;;;;;;;6302757;28;20270;-80
2023/01/05 06:18:02;;;;;;;2.90;2.40;;;;;;;;;;6303885;28;20228;-80
2023/01/05 06:21:07;;;;;;;3.53;2.40;;;;;;;;;;6304695;28;20228;-80
2023/01/05 06:24:13;;;;;;;3.03;2.73;;;;;;;;;;6304530;28;20224;-80
2023/01/05 06:27:19;;;;;;;12.57;3.03;;;;;;;;;;6295476;28;20269;-81
2023/01/05 06:30:24;;;;;;;3.47;2.17;;;;;;;;;;6289332;28;20279;-81
2023/01/05 06:33:29;;;;;;;3.67;2.53;;;;;;;;;;6289980;28;20290;-80
2023/01/05 06:36:35;;;;;;;3.10;2.40;;;;;;;;;;6289033;28;20278;-81
2023/01/05 06:39:40;;;;;;;5.20;2.30;;;;;;;;;;6289501;28;20316;-82
2023/01/05 06:42:46;;;;;;;3.37;2.20;;;;;;;;;;6289808;28;20376;-81
2023/01/05 06:45:51;;;;;;;4.30;2.60;;;;;;;;;;6298100;28;20266;-81
2023/01/05 06:48:57;;;;;;;3.70;2.47;;;;;;;;;;6303530;28;20234;-81
2023/01/05 06:52:02;;;;;;;2.17;2.17;;;;;;;;;;6286439;28;20292;-81
2023/01/05 06:55:08;;;;;;;4.53;3.50;;;;;;;;;;6292018;28;20266;-82
2023/01/05 06:58:15;;;;;;;3.07;2.50;;;;;;;;;;6286059;28;20268;-82
2023/01/05 07:01:20;;;;;;;4.70;2.77;;;;;;;;;;6286427;28;20273;-82
2023/01/05 07:04:26;;;;;;;3.13;2.23;;;;;;;;;;6286327;28;20390;-82
2023/01/05 07:07:31;;;;;;;4.33;2.87;;;;;;;;;;6286051;28;20303;-82
2023/01/05 07:10:36;;;;;;;8.03;1.83;;;;;;;;;;6285842;28;20265;-82
2023/01/05 07:13:43;;;;;;;4.00;2.20;;;;;;;;;;6286368;28;20283;-82
2023/01/05 07:16:48;;;;;;;3.43;2.63;;;;;;;;;;6286078;28;20560;-81
2023/01/05 07:19:54;;;;;;;2.97;2.67;;;;;;;;;;6285437;28;20266;-82
2023/01/05 07:22:59;;;;;;;2.47;2.20;;;;;;;;;;6285782;28;20291;-82
2023/01/05 07:26:04;;;;;;;3.70;2.90;;;;;;;;;;6285736;28;20272;-82
2023/01/05 07:29:12;;;;;;;3.30;2.47;;;;;;;;;;6285346;28;20284;-82
2023/01/05 07:32:17;;;;;;;2.57;2.40;;;;;;;;;;6285697;28;20290;-82
2023/01/05 07:35:22;;;;;;;2.30;2.20;;;;;;;;;;6285455;28;20273;-81
2023/01/05 07:38:27;;;;;;;3.87;2.73;;;;;;;;;;6285418;28;20284;-81
2023/01/05 07:41:32;;;;;;;2.93;2.40;;;;;;;;;;6285438;28;20273;-80
2023/01/05 07:44:39;;;;;;;7.33;2.57;;;;;;;;;;6285478;28;20276;-82
2023/01/05 07:47:44;;;;;;;2.43;2.17;;;;;;;;;;6285061;28;20266;-81
2023/01/05 07:50:49;;;;;;;4.63;2.53;;;;;;;;;;6285921;28;20355;-80
2023/01/05 07:53:56;;;;;;;1.90;1.90;;;;;;;;;;6285752;28;20289;-81
2023/01/05 07:57:01;;;;;;;2.00;2.00;;;;;;;;;;6285702;28;20274;-81
2023/01/05 08:00:10;;;;;;;1.97;1.83;;;;;;;;;;6285016;28;20277;-82
2023/01/05 08:03:16;;;;;;;10.37;2.27;;;;;;;;;;6267805;28;20283;-81
2023/01/05 08:06:21;;;;;;;2.63;2.37;;;;;;;;;;6285576;28;20307;-81
2023/01/05 08:16:13;;;;;;;2.00;1.70;;;;;;;;;;6284595;28;20272;-81
2023/01/05 08:19:19;;;;;;;2.37;2.13;;;;;;;;;;6267663;28;20271;-82
2023/01/05 08:22:24;;;;;;;3.57;2.57;;;;;;;;;;6285132;28;20519;-81
2023/01/05 08:25:29;;;;;;;2.60;2.40;;;;;;;;;;6285178;28;20275;-81
2023/01/05 08:28:36;;;;;;;3.97;2.27;;;;;;;;;;6284751;28;20267;-81
2023/01/05 08:31:42;;;;;;;2.27;2.17;;;;;;;;;;6285342;28;20267;-81
2023/01/05 08:34:47;;;;;;;2.87;1.97;;;;;;;;;;6284926;28;20284;-81
2023/01/05 08:37:59;;;;;;;2.77;2.57;;;;;;;;;;6289416;28;20441;-82
2023/01/05 08:41:05;;;;;;;5.23;2.53;;;;;;;;;;6290241;28;20567;-82
2023/01/05 08:44:13;;;;;;;3.27;2.40;;;;;;;;;;6289405;28;20275;-82
2023/01/05 08:47:19;;;;;;;3.60;2.33;;;;;;;;;;6289298;28;20276;-80
2023/01/05 08:50:32;;;;;;;4.43;2.80;;;;;;;;;;6289343;28;20509;-81
2023/01/05 08:53:37;;;;;;;5.43;2.67;;;;;;;;;;6303843;28;20277;-80
2023/01/05 08:56:43;;;;;;;2.93;2.73;;;;;;;;;;6288507;28;20259;-82
2023/01/05 08:59:48;;;;;;;4.70;2.77;;;;;;;;;;6291861;28;20267;-81
2023/01/05 09:02:55;;;;;;;2.53;2.33;;;;;;;;;;6289733;28;20279;-81
2023/01/05 09:06:02;;;;;;;3.90;2.80;;;;;;;;;;6289259;28;20296;-81
2023/01/05 09:09:07;;;;;;;3.27;2.97;;;;;;;;;;6289164;28;20268;-81
2023/01/05 09:12:12;;;;;;;7.47;3.03;;;;;;;;;;6289122;28;20265;-81
2023/01/05 09:15:17;;;;;;;2.10;1.93;;;;;;;;;;6288939;28;20366;-81
2023/01/05 09:18:24;;;;;;;2.60;2.50;;;;;;;;;;6288777;28;20267;-81
2023/01/05 09:21:30;;;;;;;2.60;2.40;;;;;;;;;;6288552;28;20283;-81
2023/01/05 09:24:36;;;;;;;3.30;3.00;;;;;;;;;;6288817;28;20272;-81
2023/01/05 09:27:41;;;;;;;1.87;1.77;;;;;;;;;;6288656;28;20264;-81
2023/01/05 09:30:47;;;;;;;4.70;2.63;;;;;;;;;;6287333;28;20269;-80
2023/01/05 09:33:57;;;;;;;3.50;2.53;;;;;;;;;;6287695;28;20287;-82
2023/01/05 09:37:02;;;;;;;1.17;1.17;;;;;;;;;;6286950;28;20270;-81
2023/01/05 09:40:09;;;;;;;2.87;2.40;;;;;;;;;;6270256;28;20562;-81
2023/01/05 09:43:20;;;;;;;2.70;2.50;;;;;;;;;;6288319;28;20274;-81
2023/01/05 09:46:29;;;;;;;2.50;2.30;;;;;;;;;;6288060;28;20267;-82
2023/01/05 09:49:36;;;;;;;4.40;2.83;;;;;;;;;;6287683;28;20462;-81
2023/01/05 09:52:41;;;;;;;5.00;2.07;;;;;;;;;;6287295;28;20270;-81
2023/01/05 09:55:48;;;;;;;3.07;2.37;;;;;;;;;;6287946;28;20290;-81
2023/01/05 09:58:54;;;;;;;4.17;2.83;;;;;;;;;;6288086;28;20259;-81
2023/01/05 10:02:01;;;;;;;5.03;2.53;;;;;;;;;;6288385;28;20274;-81
2023/01/05 10:05:09;;;;;;;5.23;2.10;;;;;;;;;;6287399;28;20298;-81
2023/01/05 10:08:21;;;;;;;6.00;2.87;;;;;;;;;;6288019;28;20571;-81
2023/01/05 10:15:02;;;;;;;3.20;2.53;;;;;;;;;;6286990;28;20290;-80
2023/01/05 10:18:13;;;;;;;4.20;2.53;;;;;;;;;;6269770;28;20307;-81
2023/01/05 10:21:30;;;;;;;1.90;1.90;;;;;;;;;;6287828;28;20274;-82
2023/01/05 10:24:43;;;;;;;6.97;3.17;;;;;;;;;;6286997;28;20291;-81
2023/01/05 10:27:53;;;;;;;3.90;2.83;;;;;;;;;;6287039;28;20269;-81
2023/01/05 10:31:02;;;;;;;2.80;2.67;;;;;;;;;;6287473;28;20272;-81
2023/01/05 10:34:17;;;;;;;3.00;2.80;;;;;;;;;;6287556;28;20311;-81
2023/01/05 10:37:44;;;;;;;3.47;2.57;;;;;;;;;;6287664;28;20272;-82
2023/01/05 10:40:56;;;;;;;4.00;2.87;;;;;;;;;;6270268;28;20267;-80
2023/01/05 10:44:34;;;;;;;4.83;2.13;;;;;;;;;;6269246;28;20456;-80
2023/01/05 10:47:40;;;;;;;2.60;2.43;;;;;;;;;;6287463;28;20270;-81
2023/01/05 10:50:46;;;;;;;3.47;2.83;;;;;;;;;;6286707;28;20274;-81
2023/01/05 10:53:54;;;;;;;2.97;2.37;;;;;;;;;;6285564;28;20294;-80
2023/01/05 10:57:23;;;;;;;2.80;2.60;;;;;;;;;;6286776;28;20549;-81
2023/01/05 11:00:43;;;;;;;3.57;2.70;;;;;;;;;;6286897;28;20455;-81
2023/01/05 11:03:49;;;;;;;6.57;3.00;;;;;;;;;;6289375;28;20274;-81
2023/01/05 11:07:14;;;;;;;5.70;2.60;;;;;;;;;;6286426;28;20294;-81
2023/01/05 11:10:28;;;;;;;5.40;2.60;;;;;;;;;;6286378;28;20465;-81
2023/01/05 11:13:34;;;;;;;5.97;2.27;;;;;;;;;;6287041;28;20263;-81
2023/01/05 11:16:40;;;;;;;3.37;2.83;;;;;;;;;;6286253;28;20288;-82
2023/01/05 11:19:48;;;;;;;5.67;2.67;;;;;;;;;;6284973;28;20275;-81
2023/01/05 11:22:53;;;;;;;6.97;2.97;;;;;;;;;;6285584;28;20269;-81
2023/01/05 11:26:17;;;;;;;6.87;2.80;;;;;;;;;;6286327;28;20293;-82
2023/01/05 11:29:23;;;;;;;4.57;2.73;;;;;;;;;;6285985;28;20274;-81
2023/01/05 11:32:28;;;;;;;3.90;2.77;;;;;;;;;;6286516;28;20269;-82
2023/01/05 11:35:36;;;;;;;4.93;2.53;;;;;;;;;;6286112;28;20305;-81
2023/01/05 11:38:41;;;;;;;4.90;2.73;;;;;;;;;;6286482;28;20282;-81
2023/01/05 11:41:48;;;;;;;3.70;2.80;;;;;;;;;;6286200;28;20271;-81
2023/01/05 11:44:55;;;;;;;7.93;2.53;;;;;;;;;;6285187;28;20479;-81
2023/01/05 11:48:02;;;;;;;2.97;2.73;;;;;;;;;;6286269;28;20581;-82
2023/01/05 11:51:07;;;;;;;3.57;2.87;;;;;;;;;;6286093;28;20271;-81
2023/01/05 11:54:34;;;;;;;3.37;2.60;;;;;;;;;;6285846;28;20266;-81
2023/01/05 11:57:40;;;;;;;3.67;2.70;;;;;;;;;;6285214;28;20283;-83
2023/01/05 12:01:12;;;;;;;2.90;2.00;;;;;;;;;;6251190;28;20434;-81
2023/01/05 12:04:30;;;;;;;4.43;2.73;;;;;;;;;;6276854;28;20269;-80
2023/01/05 12:07:37;;;;;;;1.33;1.33;;;;;;;;;;6236502;28;20507;-80
2023/01/05 12:10:54;;;;;;;2.80;2.60;;;;;;;;;;6237724;28;20271;-82
2023/01/05 12:14:16;;;;;;;3.37;2.83;;;;;;;;;;6241191;28;20262;-81
2023/01/05 12:17:26;;;;;;;3.47;2.20;;;;;;;;;;6241672;28;20276;-82
2023/01/05 12:20:55;;;;;;;2.60;2.40;;;;;;;;;;6241933;28;20279;-80
2023/01/05 12:24:29;;;;;;;6.00;3.00;;;;;;;;;;6240320;28;20525;-82
2023/01/05 12:27:45;;;;;;;2.97;2.27;;;;;;;;;;6220190;28;20273;-81
2023/01/05 12:30:58;;;;;;;5.70;2.60;;;;;;;;;;6240870;28;20453;-81
2023/01/05 12:34:35;;;;;;;4.13;2.97;;;;;;;;;;6240683;28;20454;-81
2023/01/05 12:37:50;;;;;;;3.83;3.37;;;;;;;;;;6255448;28;20351;-81
2023/01/05 12:41:15;;;;;;;3.00;2.70;;;;;;;;;;6240555;28;20565;-81
2023/01/05 12:44:48;;;;;;;6.10;3.30;;;;;;;;;;6241146;28;20454;-81
2023/01/05 12:47:59;;;;;;;2.77;2.67;;;;;;;;;;6241594;28;20267;-82
2023/01/05 12:51:09;;;;;;;2.93;2.73;;;;;;;;;;6239970;28;20552;-82
2023/01/05 12:54:27;;;;;;;5.57;2.80;;;;;;;;;;6240930;28;20272;-81
2023/01/05 12:57:37;;;;;;;6.23;3.03;;;;;;;;;;6240518;28;20291;-82
2023/01/05 13:00:45;;;;;;;5.10;2.63;;;;;;;;;;6256276;28;20288;-80
2023/01/05 13:03:59;;;;;;;3.17;2.40;;;;;;;;;;6248581;28;20260;-82
2023/01/05 13:07:08;;;;;;;5.63;2.53;;;;;;;;;;6297601;28;20254;-80
2023/01/05 13:10:20;;;;;;;9.93;3.03;;;;;;;;;;6304545;28;20230;-80
2023/01/05 13:13:30;;;;;;;7.33;3.23;;;;;;;;;;6296417;28;20266;-82
2023/01/05 13:16:39;;;;;;;3.70;2.40;;;;;;;;;;6290162;28;20289;-81
2023/01/05 13:19:48;;;;;;;6.17;3.27;;;;;;;;;;6289814;28;20446;-82
2023/01/05 13:22:58;;;;;;;6.43;3.03;;;;;;;;;;6288638;28;20274;-81
2023/01/05 13:26:06;;;;;;;2.60;2.30;;;;;;;;;;6289467;28;20293;-82
2023/01/05 13:29:21;;;;;;;3.60;3.23;;;;;;;;;;6288851;28;20464;-82
2023/01/05 13:32:39;;;;;;;3.83;2.63;;;;;;;;;;6289155;28;20284;-82
2023/01/05 13:35:56;;;;;;;6.53;2.93;;;;;;;;;;6271496;28;20289;-82
2023/01/05 13:39:28;;;;;;;2.63;2.50;;;;;;;;;;6289018;28;20293;-82
2023/01/05 13:42:43;;;;;;;5.30;2.70;;;;;;;;;;6288257;28;20458;-82
2023/01/05 13:46:18;;;;;;;5.03;3.03;;;;;;;;;;6288009;28;20288;-82
2023/01/05 13:49:43;;;;;;;3.03;2.87;;;;;;;;;;6286717;28;20433;-81
2023/01/05 13:53:04;;;;;;;6.10;2.33;;;;;;;;;;6287512;28;20266;-81
2023/01/05 13:56:16;;;;;;;3.83;3.00;;;;;;;;;;6288878;28;20299;-81
2023/01/05 13:59:26;;;;;;;5.17;3.53;;;;;;;;;;6288406;28;20275;-81
2023/01/05 14:02:46;;;;;;;2.80;2.57;;;;;;;;;;6271131;28;20270;-81
2023/01/05 14:05:53;;;;;;;4.77;3.10;;;;;;;;;;6288717;28;20307;-81
2023/01/05 14:09:01;;;;;;;5.17;3.00;;;;;;;;;;6288684;28;20332;-81
2023/01/05 14:12:43;;;;;;;9.43;2.50;;;;;;;;;;6288269;28;20265;-81
2023/01/05 14:15:48;;;;;;;6.00;2.87;;;;;;;;;;6288689;28;20293;-82
2023/01/05 14:19:10;;;;;;;5.93;2.83;;;;;;;;;;6271029;28;20277;-81
2023/01/05 14:22:42;;;;;;;8.40;3.27;;;;;;;;;;6288418;28;20431;-81
2023/01/05 14:25:52;;;;;;;6.17;2.73;;;;;;;;;;6243652;28;20274;-81
2023/01/05 14:28:58;;;;;;;6.83;3.00;;;;;;;;;;6287793;28;20274;-82
2023/01/05 14:32:06;;;;;;;6.23;3.00;;;;;;;;;;6287912;28;20269;-82
2023/01/05 14:35:22;;;;;;;4.13;3.37;;;;;;;;;;6268859;28;20278;-81
2023/01/05 14:38:28;;;;;;;3.17;2.77;;;;;;;;;;6287664;28;20475;-81
2023/01/05 14:41:34;;;;;;;4.50;3.00;;;;;;;;;;6287964;28;20269;-82
2023/01/05 14:44:50;;;;;;;6.47;3.00;;;;;;;;;;6287869;28;20277;-82
2023/01/05 14:47:57;;;;;;;3.73;3.10;;;;;;;;;;6287011;28;20273;-81
2023/01/05 14:51:28;;;;;;;6.90;3.30;;;;;;;;;;6287259;28;20274;-81
2023/01/05 14:54:58;;;;;;;3.07;2.67;;;;;;;;;;6269924;28;20273;-82
2023/01/05 14:58:48;;;;;;;8.40;3.10;;;;;;;;;;6286006;28;20289;-82
2023/01/05 15:01:56;;;;;;;3.57;3.10;;;;;;;;;;6286532;28;20453;-81
2023/01/05 15:05:05;;;;;;;6.13;3.53;;;;;;;;;;6286637;28;20281;-82
2023/01/05 15:08:26;;;;;;;7.00;3.47;;;;;;;;;;6286526;28;20262;-81
2023/01/05 15:11:51;;;;;;;4.37;2.63;;;;;;;;;;6285902;28;20288;-82
2023/01/05 15:15:25;;;;;;;2.97;2.77;;;;;;;;;;6287093;28;20269;-82
2023/01/05 15:19:05;;;;;;;2.97;2.83;;;;;;;;;;6288381;28;20282;-82
2023/01/05 15:22:25;;;;;;;7.93;3.20;;;;;;;;;;6301548;28;20226;-81
2023/01/05 15:26:04;;;;;;;52.40;13.07;;;;;;;;;;6295783;28;20273;-81
2023/01/05 15:29:42;;;;;;;13.67;5.47;;;;;;;;;;6296027;28;20241;-80
2023/01/05 15:33:00;;;;;;;27.40;10.00;;;;;;;;;;6288378;28;20269;-80
2023/01/05 15:36:06;;;;;;;20.57;7.13;;;;;;;;;;6286669;28;20454;-81
2023/01/05 15:39:24;;;;;;;35.97;13.10;;;;;;;;;;6286559;28;20301;-81
2023/01/05 15:42:35;;;;;;;17.23;7.17;;;;;;;;;;6286090;28;20274;-81
2023/01/05 15:45:42;;;;;;;15.30;7.67;;;;;;;;;;6286103;28;20275;-81
2023/01/05 15:48:52;;;;;;;7.27;4.37;;;;;;;;;;6285719;28;20274;-81
2023/01/05 15:51:57;;;;;;;7.77;2.93;;;;;;;;;;6285683;28;20560;-80
2023/01/05 15:55:11;;;;;;;7.40;3.30;;;;;;;;;;6285569;28;20357;-81
2023/01/05 15:58:16;;;;;;;4.03;3.13;;;;;;;;;;6286813;28;20288;-81
2023/01/05 16:01:21;;;;;;;4.73;2.90;;;;;;;;;;6288050;28;20264;-81
2023/01/05 16:04:29;;;;;;;6.47;3.50;;;;;;;;;;6287247;28;20278;-81
2023/01/05 16:07:34;;;;;;;5.60;3.67;;;;;;;;;;6285366;28;20466;-80
2023/01/05 16:10:44;;;;;;;3.57;3.37;;;;;;;;;;6285859;28;20270;-81
2023/01/05 16:13:52;;;;;;;8.10;3.33;;;;;;;;;;6276097;28;20267;-81
2023/01/05 16:17:04;;;;;;;5.20;3.20;;;;;;;;;;6260533;28;20290;-81
2023/01/05 16:20:15;;;;;;;3.93;3.10;;;;;;;;;;6261080;28;20438;-81
2023/01/05 16:23:24;;;;;;;11.20;3.90;;;;;;;;;;6260287;28;20559;-81
2023/01/05 16:26:29;;;;;;;4.90;3.30;;;;;;;;;;6261139;28;20551;-81
2023/01/05 16:29:38;;;;;;;3.80;2.80;;;;;;;;;;6243785;28;20587;-81
2023/01/05 16:32:44;;;;;;;9.50;3.40;;;;;;;;;;6261277;28;20563;-82
2023/01/05 16:35:51;;;;;;;10.27;3.00;;;;;;;;;;6260402;28;20363;-81
2023/01/05 16:39:12;;;;;;;11.00;6.40;;;;;;;;;;6242556;28;20288;-81
2023/01/05 16:45:42;;;;;;;4.50;3.50;;;;;;;;;;6276208;28;20268;-80
2023/01/05 16:48:49;;;;;;;4.43;3.53;;;;;;;;;;6260667;28;20274;-81
2023/01/05 16:51:58;;;;;;;5.00;3.00;;;;;;;;;;6260387;28;20439;-81
2023/01/05 16:55:22;;;;;;;5.17;3.17;;;;;;;;;;6260416;28;20270;-80
2023/01/05 16:58:37;;;;;;;5.93;4.20;;;;;;;;;;6246209;28;20610;-81
2023/01/05 17:01:44;;;;;;;6.37;3.37;;;;;;;;;;6265039;28;20271;-81
2023/01/05 17:04:49;;;;;;;4.60;3.20;;;;;;;;;;6246373;28;20451;-80
2023/01/05 17:08:04;;;;;;;7.60;4.17;;;;;;;;;;6264804;28;20280;-80
2023/01/05 17:11:11;;;;;;;3.43;3.13;;;;;;;;;;6264783;28;20274;-80
2023/01/05 17:14:17;;;;;;;6.27;3.00;;;;;;;;;;6289210;28;20270;-80
2023/01/05 17:17:23;;;;;;;4.77;3.43;;;;;;;;;;6289381;28;20274;-81
2023/01/05 17:20:32;;;;;;;8.90;3.40;;;;;;;;;;6289058;28;20265;-80
2023/01/05 17:23:45;;;;;;;4.70;3.70;;;;;;;;;;6287948;28;20529;-80
2023/01/05 17:26:50;;;;;;;5.77;3.57;;;;;;;;;;6288972;28;20574;-80
2023/01/05 17:29:56;;;;;;;4.60;2.80;;;;;;;;;;6288566;28;20277;-80
2023/01/05 17:33:01;;;;;;;8.70;3.17;;;;;;;;;;6288903;28;20270;-81
2023/01/05 17:36:07;;;;;;;9.10;3.40;;;;;;;;;;6288825;28;20266;-81
2023/01/05 17:39:15;;;;;;;3.97;3.37;;;;;;;;;;6288184;28;20289;-81
2023/01/05 17:45:44;;;;;;;3.97;3.53;;;;;;;;;;6287199;28;20273;-80
2023/01/05 17:48:50;;;;;;;9.87;3.43;;;;;;;;;;6288160;28;20270;-79
2023/01/05 17:51:55;;;;;;;3.20;2.90;;;;;;;;;;6288760;28;20273;-80
2023/01/05 17:55:01;;;;;;;4.10;3.23;;;;;;;;;;6270696;28;20293;-80
2023/01/05 17:58:07;;;;;;;7.23;3.07;;;;;;;;;;6287764;28;20287;-82
2023/01/05 18:01:12;;;;;;;6.47;2.80;;;;;;;;;;6294376;28;20258;-81
2023/01/05 18:04:17;;;;;;;4.43;2.93;;;;;;;;;;6287482;28;20254;-80
2023/01/05 18:07:23;;;;;;;3.23;2.60;;;;;;;;;;6304219;28;20250;-79
2023/01/05 18:10:29;;;;;;;2.63;2.53;;;;;;;;;;6304571;28;20229;-80
2023/01/05 18:13:35;;;;;;;3.03;2.50;;;;;;;;;;6303421;28;20227;-81
2023/01/05 18:16:45;;;;;;;5.10;2.50;;;;;;;;;;6296450;28;20262;-81
2023/01/05 18:19:50;;;;;;;2.87;2.33;;;;;;;;;;6289709;28;20286;-80
2023/01/05 18:22:56;;;;;;;2.53;2.33;;;;;;;;;;6289633;28;20277;-81
2023/01/05 18:26:05;;;;;;;3.10;2.70;;;;;;;;;;6289449;28;20460;-81
2023/01/05 18:29:10;;;;;;;2.27;2.07;;;;;;;;;;6289417;28;20274;-80
2023/01/05 18:32:15;;;;;;;2.30;2.10;;;;;;;;;;6287784;28;20274;-81
2023/01/05 18:35:21;;;;;;;2.60;2.40;;;;;;;;;;6287266;28;20295;-81
2023/01/05 18:38:26;;;;;;;2.30;2.20;;;;;;;;;;6287048;28;20293;-81
2023/01/05 18:41:33;;;;;;;3.27;2.93;;;;;;;;;;6287501;28;20270;-81
2023/01/05 18:44:38;;;;;;;2.20;2.20;;;;;;;;;;6269824;28;20265;-80
2023/01/05 18:47:43;;;;;;;6.80;2.27;;;;;;;;;;6269423;28;20274;-80
2023/01/05 18:50:50;;;;;;;4.23;2.53;;;;;;;;;;6287347;28;20390;-81
2023/01/05 18:53:55;;;;;;;2.27;2.10;;;;;;;;;;6286726;28;20268;-81
2023/01/05 18:57:02;;;;;;;3.50;2.07;;;;;;;;;;6286448;28;20432;-80
2023/01/05 19:00:10;;;;;;;2.03;1.93;;;;;;;;;;6287258;28;20290;-81
2023/01/05 19:03:16;;;;;;;3.33;2.00;;;;;;;;;;6287505;28;20274;-80
2023/01/05 19:06:23;;;;;;;2.00;1.90;;;;;;;;;;6286147;28;20301;-80
2023/01/05 19:09:28;;;;;;;2.30;2.10;;;;;;;;;;6286697;28;20278;-81
2023/01/05 19:12:34;;;;;;;2.50;2.30;;;;;;;;;;6286577;28;20266;-81
2023/01/05 19:15:40;;;;;;;2.00;1.90;;;;;;;;;;6268940;28;20303;-81
2023/01/05 19:18:49;;;;;;;4.33;1.90;;;;;;;;;;6286598;28;20538;-81
2023/01/05 19:21:54;;;;;;;4.43;2.00;;;;;;;;;;6273025;28;20267;-81
2023/01/05 19:25:00;;;;;;;2.77;2.60;;;;;;;;;;6294630;28;20448;-81
2023/01/05 19:28:07;;;;;;;3.23;2.27;;;;;;;;;;6294461;28;20274;-82
2023/01/05 19:31:14;;;;;;;2.90;2.50;;;;;;;;;;6286389;28;20267;-82
2023/01/05 19:34:19;;;;;;;3.20;2.90;;;;;;;;;;6269109;28;20267;-81
2023/01/05 19:37:24;;;;;;;5.20;2.70;;;;;;;;;;6285473;28;20265;-81
2023/01/05 19:40:30;;;;;;;2.70;2.50;;;;;;;;;;6285182;28;20294;-80
2023/01/05 19:43:39;;;;;;;3.30;2.80;;;;;;;;;;6285245;28;20562;-80
2023/01/05 19:46:47;;;;;;;4.47;2.67;;;;;;;;;;6286165;28;20335;-82